sensor_id;sensor_type;location;lat;lon;timestamp;temperature;humidity
7234;DHT22;3658;47.992;10.158;2022-11-15T00:02:15;20.50;47.40
7234;DHT22;3658;47.992;10.158;2022-11-15T00:04:43;20.50;47.40
7234;DHT22;3658;47.992;10.158;2022-11-15T00:07:10;20.50;47.40
7234;DHT22;3658;47.992;10.158;2022-11-15T00:09:37;20.50;47.40
7234;DHT22;3658;47.992;10.158;2022-11-15T00:12:04;20.50;47.40
7234;DHT22;3658;47.992;10.158;2022-11-15T00:14:31;20.50;47.40
7234;DHT22;3658;47.992;10.158;2022-11-15T00:16:58;20.40;47.40
7234;DHT22;3658;47.992;10.158;2022-11-15T00:19:25;20.40;47.40
7234;DHT22;3658;47.992;10.158;2022-11-15T00:21:53;20.40;47.40
7234;DHT22;3658;47.992;10.158;2022-11-15T00:24:20;20.40;47.30
7234;DHT22;3658;47.992;10.158;2022-11-15T00:26:47;20.40;47.30
7234;DHT22;3658;47.992;10.158;2022-11-15T00:29:13;20.40;47.40
7234;DHT22;3658;47.992;10.158;2022-11-15T00:31:40;20.40;47.30
7234;DHT22;3658;47.992;10.158;2022-11-15T00:34:08;20.40;47.40
7234;DHT22;3658;47.992;10.158;2022-11-15T00:36:35;20.40;48.10
7234;DHT22;3658;47.992;10.158;2022-11-15T00:39:05;20.40;47.40
7234;DHT22;3658;47.992;10.158;2022-11-15T00:41:32;20.40;47.40
7234;DHT22;3658;47.992;10.158;2022-11-15T00:43:59;20.40;47.90
7234;DHT22;3658;47.992;10.158;2022-11-15T00:46:26;20.40;47.40
7234;DHT22;3658;47.992;10.158;2022-11-15T00:48:53;20.40;47.30
7234;DHT22;3658;47.992;10.158;2022-11-15T00:51:19;20.40;47.30
7234;DHT22;3658;47.992;10.158;2022-11-15T00:53:46;20.40;47.40
7234;DHT22;3658;47.992;10.158;2022-11-15T00:56:15;20.40;47.40
7234;DHT22;3658;47.992;10.158;2022-11-15T00:58:41;20.40;47.30
7234;DHT22;3658;47.992;10.158;2022-11-15T01:01:10;20.40;47.30
7234;DHT22;3658;47.992;10.158;2022-11-15T01:03:39;20.40;47.30
7234;DHT22;3658;47.992;10.158;2022-11-15T01:06:06;20.40;47.30
7234;DHT22;3658;47.992;10.158;2022-11-15T01:08:34;20.40;47.30
7234;DHT22;3658;47.992;10.158;2022-11-15T01:11:01;20.30;47.20
7234;DHT22;3658;47.992;10.158;2022-11-15T01:13:31;20.30;47.20
7234;DHT22;3658;47.992;10.158;2022-11-15T01:15:59;20.40;47.30
7234;DHT22;3658;47.992;10.158;2022-11-15T01:18:26;20.30;47.10
7234;DHT22;3658;47.992;10.158;2022-11-15T01:20:53;20.30;47.20
7234;DHT22;3658;47.992;10.158;2022-11-15T01:23:19;20.30;47.20
7234;DHT22;3658;47.992;10.158;2022-11-15T01:25:46;20.30;47.10
7234;DHT22;3658;47.992;10.158;2022-11-15T01:28:13;20.30;47.10
7234;DHT22;3658;47.992;10.158;2022-11-15T01:30:41;20.30;47.10
7234;DHT22;3658;47.992;10.158;2022-11-15T01:33:08;20.30;47.10
7234;DHT22;3658;47.992;10.158;2022-11-15T01:35:38;20.30;47.10
7234;DHT22;3658;47.992;10.158;2022-11-15T01:38:06;20.30;47.10
7234;DHT22;3658;47.992;10.158;2022-11-15T01:40:33;20.30;47.10
7234;DHT22;3658;47.992;10.158;2022-11-15T01:43:18;20.30;47.10
7234;DHT22;3658;47.992;10.158;2022-11-15T01:45:49;20.30;47.10
7234;DHT22;3658;47.992;10.158;2022-11-15T01:48:18;20.30;47.10
7234;DHT22;3658;47.992;10.158;2022-11-15T01:50:45;20.30;47.10
7234;DHT22;3658;47.992;10.158;2022-11-15T01:53:12;20.30;47.10
7234;DHT22;3658;47.992;10.158;2022-11-15T01:55:39;20.30;47.10
7234;DHT22;3658;47.992;10.158;2022-11-15T01:58:06;20.30;47.10
7234;DHT22;3658;47.992;10.158;2022-11-15T02:00:34;20.30;47.10
7234;DHT22;3658;47.992;10.158;2022-11-15T02:03:02;20.20;47.00
7234;DHT22;3658;47.992;10.158;2022-11-15T02:05:30;20.20;47.00
7234;DHT22;3658;47.992;10.158;2022-11-15T02:07:59;20.20;46.90
7234;DHT22;3658;47.992;10.158;2022-11-15T02:10:27;20.20;46.90
7234;DHT22;3658;47.992;10.158;2022-11-15T02:12:55;20.20;47.00
7234;DHT22;3658;47.992;10.158;2022-11-15T02:15:24;20.20;47.50
7234;DHT22;3658;47.992;10.158;2022-11-15T02:18:03;20.20;46.90
7234;DHT22;3658;47.992;10.158;2022-11-15T02:20:56;20.20;46.90
7234;DHT22;3658;47.992;10.158;2022-11-15T02:23:56;20.20;46.90
7234;DHT22;3658;47.992;10.158;2022-11-15T02:26:52;20.20;46.90
7234;DHT22;3658;47.992;10.158;2022-11-15T02:29:28;20.20;46.90
7234;DHT22;3658;47.992;10.158;2022-11-15T02:32:05;20.20;46.90
7234;DHT22;3658;47.992;10.158;2022-11-15T02:34:42;20.20;46.90
7234;DHT22;3658;47.992;10.158;2022-11-15T02:37:17;20.20;46.90
7234;DHT22;3658;47.992;10.158;2022-11-15T02:39:50;20.20;46.90
7234;DHT22;3658;47.992;10.158;2022-11-15T02:42:23;20.20;46.90
7234;DHT22;3658;47.992;10.158;2022-11-15T02:45:12;20.20;46.90
7234;DHT22;3658;47.992;10.158;2022-11-15T02:47:44;20.20;46.90
7234;DHT22;3658;47.992;10.158;2022-11-15T02:50:16;20.20;46.90
7234;DHT22;3658;47.992;10.158;2022-11-15T02:52:45;20.20;46.90
7234;DHT22;3658;47.992;10.158;2022-11-15T02:55:27;20.20;46.90
7234;DHT22;3658;47.992;10.158;2022-11-15T02:58:06;20.20;46.90
7234;DHT22;3658;47.992;10.158;2022-11-15T03:00:35;20.20;46.90
7234;DHT22;3658;47.992;10.158;2022-11-15T03:03:31;20.20;46.90
7234;DHT22;3658;47.992;10.158;2022-11-15T03:06:09;20.20;46.90
7234;DHT22;3658;47.992;10.158;2022-11-15T03:08:43;20.20;46.90
7234;DHT22;3658;47.992;10.158;2022-11-15T03:11:14;20.20;46.90
7234;DHT22;3658;47.992;10.158;2022-11-15T03:13:47;20.20;46.90
7234;DHT22;3658;47.992;10.158;2022-11-15T03:16:19;20.20;47.50
7234;DHT22;3658;47.992;10.158;2022-11-15T03:18:52;20.10;46.80
7234;DHT22;3658;47.992;10.158;2022-11-15T03:21:22;20.20;46.90
7234;DHT22;3658;47.992;10.158;2022-11-15T03:23:51;20.10;46.80
7234;DHT22;3658;47.992;10.158;2022-11-15T03:26:20;20.10;46.70
7234;DHT22;3658;47.992;10.158;2022-11-15T03:28:51;20.10;46.70
7234;DHT22;3658;47.992;10.158;2022-11-15T03:31:21;20.10;46.80
7234;DHT22;3658;47.992;10.158;2022-11-15T03:34:12;20.10;47.40
7234;DHT22;3658;47.992;10.158;2022-11-15T03:36:42;20.10;46.70
7234;DHT22;3658;47.992;10.158;2022-11-15T03:39:11;20.10;46.70
7234;DHT22;3658;47.992;10.158;2022-11-15T03:41:42;20.10;46.70
7234;DHT22;3658;47.992;10.158;2022-11-15T03:44:16;20.10;46.70
7234;DHT22;3658;47.992;10.158;2022-11-15T03:46:51;20.10;46.70
7234;DHT22;3658;47.992;10.158;2022-11-15T03:49:28;20.10;46.70
7234;DHT22;3658;47.992;10.158;2022-11-15T03:51:57;20.10;46.70
7234;DHT22;3658;47.992;10.158;2022-11-15T03:54:24;20.10;46.70
7234;DHT22;3658;47.992;10.158;2022-11-15T03:56:51;20.10;46.70
7234;DHT22;3658;47.992;10.158;2022-11-15T03:59:18;20.10;46.70
7234;DHT22;3658;47.992;10.158;2022-11-15T04:01:45;20.10;46.70
7234;DHT22;3658;47.992;10.158;2022-11-15T04:04:12;20.10;46.70
7234;DHT22;3658;47.992;10.158;2022-11-15T04:06:40;20.10;47.30
7234;DHT22;3658;47.992;10.158;2022-11-15T04:09:07;20.10;46.70
7234;DHT22;3658;47.992;10.158;2022-11-15T04:11:34;20.10;46.60
7234;DHT22;3658;47.992;10.158;2022-11-15T04:14:01;20.10;46.60
7234;DHT22;3658;47.992;10.158;2022-11-15T04:16:28;20.00;46.50
7234;DHT22;3658;47.992;10.158;2022-11-15T04:18:55;20.00;46.50
7234;DHT22;3658;47.992;10.158;2022-11-15T04:21:35;20.00;46.50
7234;DHT22;3658;47.992;10.158;2022-11-15T04:24:21;20.00;46.60
7234;DHT22;3658;47.992;10.158;2022-11-15T04:26:48;20.00;46.60
7234;DHT22;3658;47.992;10.158;2022-11-15T04:29:15;20.00;46.50
7234;DHT22;3658;47.992;10.158;2022-11-15T04:31:59;20.00;46.50
7234;DHT22;3658;47.992;10.158;2022-11-15T04:34:26;20.00;46.50
7234;DHT22;3658;47.992;10.158;2022-11-15T04:36:53;20.00;46.50
7234;DHT22;3658;47.992;10.158;2022-11-15T04:39:40;20.00;46.50
7234;DHT22;3658;47.992;10.158;2022-11-15T04:42:07;20.00;46.50
7234;DHT22;3658;47.992;10.158;2022-11-15T04:44:35;20.00;46.50
7234;DHT22;3658;47.992;10.158;2022-11-15T04:47:03;20.00;46.50
7234;DHT22;3658;47.992;10.158;2022-11-15T04:49:30;20.00;46.50
7234;DHT22;3658;47.992;10.158;2022-11-15T04:51:57;20.00;46.50
7234;DHT22;3658;47.992;10.158;2022-11-15T04:54:24;20.00;46.50
7234;DHT22;3658;47.992;10.158;2022-11-15T04:56:52;20.00;47.10
7234;DHT22;3658;47.992;10.158;2022-11-15T04:59:19;20.00;46.50
7234;DHT22;3658;47.992;10.158;2022-11-15T05:01:46;20.00;46.50
7234;DHT22;3658;47.992;10.158;2022-11-15T05:04:13;20.00;46.50
7234;DHT22;3658;47.992;10.158;2022-11-15T05:06:45;20.00;46.50
7234;DHT22;3658;47.992;10.158;2022-11-15T05:09:12;20.00;46.50
7234;DHT22;3658;47.992;10.158;2022-11-15T05:11:39;20.00;46.50
7234;DHT22;3658;47.992;10.158;2022-11-15T05:14:08;20.00;46.50
7234;DHT22;3658;47.992;10.158;2022-11-15T05:16:35;19.90;46.40
7234;DHT22;3658;47.992;10.158;2022-11-15T05:19:02;19.90;46.40
7234;DHT22;3658;47.992;10.158;2022-11-15T05:21:30;20.00;46.50
7234;DHT22;3658;47.992;10.158;2022-11-15T05:23:57;20.00;46.60
7234;DHT22;3658;47.992;10.158;2022-11-15T05:26:24;19.90;47.20
7234;DHT22;3658;47.992;10.158;2022-11-15T05:28:54;20.00;46.70
7234;DHT22;3658;47.992;10.158;2022-11-15T05:31:23;19.90;46.60
7234;DHT22;3658;47.992;10.158;2022-11-15T05:33:51;19.90;46.60
7234;DHT22;3658;47.992;10.158;2022-11-15T05:36:21;19.90;46.70
7234;DHT22;3658;47.992;10.158;2022-11-15T05:38:53;19.90;46.70
7234;DHT22;3658;47.992;10.158;2022-11-15T05:41:22;19.90;46.70
7234;DHT22;3658;47.992;10.158;2022-11-15T05:43:51;19.90;46.80
7234;DHT22;3658;47.992;10.158;2022-11-15T05:46:19;19.90;46.80
7234;DHT22;3658;47.992;10.158;2022-11-15T05:48:48;19.90;46.90
7234;DHT22;3658;47.992;10.158;2022-11-15T05:51:17;19.90;47.00
7234;DHT22;3658;47.992;10.158;2022-11-15T05:53:46;19.90;47.00
7234;DHT22;3658;47.992;10.158;2022-11-15T05:56:14;19.90;47.00
7234;DHT22;3658;47.992;10.158;2022-11-15T05:58:42;19.90;47.00
7234;DHT22;3658;47.992;10.158;2022-11-15T06:01:09;19.90;47.00
7234;DHT22;3658;47.992;10.158;2022-11-15T06:03:36;19.90;47.10
7234;DHT22;3658;47.992;10.158;2022-11-15T06:06:05;19.90;47.60
7234;DHT22;3658;47.992;10.158;2022-11-15T06:08:32;19.90;47.00
7234;DHT22;3658;47.992;10.158;2022-11-15T06:11:04;19.90;47.10
7234;DHT22;3658;47.992;10.158;2022-11-15T06:13:32;19.90;47.10
7234;DHT22;3658;47.992;10.158;2022-11-15T06:15:59;19.90;47.10
7234;DHT22;3658;47.992;10.158;2022-11-15T06:18:26;19.90;47.10
7234;DHT22;3658;47.992;10.158;2022-11-15T06:20:53;19.90;47.10
7234;DHT22;3658;47.992;10.158;2022-11-15T06:23:22;19.90;47.10
7234;DHT22;3658;47.992;10.158;2022-11-15T06:25:49;19.90;47.20
7234;DHT22;3658;47.992;10.158;2022-11-15T06:28:16;19.90;47.20
7234;DHT22;3658;47.992;10.158;2022-11-15T06:30:43;19.90;47.20
7234;DHT22;3658;47.992;10.158;2022-11-15T06:33:10;19.90;47.20
7234;DHT22;3658;47.992;10.158;2022-11-15T06:35:37;19.90;47.20
7234;DHT22;3658;47.992;10.158;2022-11-15T06:38:04;19.90;47.20
7234;DHT22;3658;47.992;10.158;2022-11-15T06:40:34;19.90;47.20
7234;DHT22;3658;47.992;10.158;2022-11-15T06:43:02;19.90;47.20
7234;DHT22;3658;47.992;10.158;2022-11-15T06:45:29;19.90;47.20
7234;DHT22;3658;47.992;10.158;2022-11-15T06:47:57;19.90;47.30
7234;DHT22;3658;47.992;10.158;2022-11-15T06:50:24;19.90;47.30
7234;DHT22;3658;47.992;10.158;2022-11-15T06:52:51;19.90;47.30
7234;DHT22;3658;47.992;10.158;2022-11-15T06:55:18;19.90;47.30
7234;DHT22;3658;47.992;10.158;2022-11-15T06:57:50;19.90;47.50
7234;DHT22;3658;47.992;10.158;2022-11-15T07:00:19;19.90;47.50
7234;DHT22;3658;47.992;10.158;2022-11-15T07:02:46;19.90;47.60
7234;DHT22;3658;47.992;10.158;2022-11-15T07:05:15;19.90;47.70
7234;DHT22;3658;47.992;10.158;2022-11-15T07:07:42;19.90;47.70
7234;DHT22;3658;47.992;10.158;2022-11-15T07:10:09;19.90;47.80
7234;DHT22;3658;47.992;10.158;2022-11-15T07:12:36;19.90;47.80
7234;DHT22;3658;47.992;10.158;2022-11-15T07:15:06;19.90;47.70
7234;DHT22;3658;47.992;10.158;2022-11-15T07:17:33;19.90;47.70
7234;DHT22;3658;47.992;10.158;2022-11-15T07:20:00;19.80;47.60
7234;DHT22;3658;47.992;10.158;2022-11-15T07:22:26;19.80;47.60
7234;DHT22;3658;47.992;10.158;2022-11-15T07:24:53;19.80;47.60
7234;DHT22;3658;47.992;10.158;2022-11-15T07:27:20;19.80;47.60
7234;DHT22;3658;47.992;10.158;2022-11-15T07:29:47;19.80;47.70
7234;DHT22;3658;47.992;10.158;2022-11-15T07:32:16;19.80;47.70
7234;DHT22;3658;47.992;10.158;2022-11-15T07:34:42;19.80;47.70
7234;DHT22;3658;47.992;10.158;2022-11-15T07:37:11;19.80;47.70
7234;DHT22;3658;47.992;10.158;2022-11-15T07:39:38;19.80;47.70
7234;DHT22;3658;47.992;10.158;2022-11-15T07:42:05;19.80;47.70
7234;DHT22;3658;47.992;10.158;2022-11-15T07:44:49;19.80;47.70
7234;DHT22;3658;47.992;10.158;2022-11-15T07:47:18;19.80;47.70
7234;DHT22;3658;47.992;10.158;2022-11-15T07:49:45;19.80;47.80
7234;DHT22;3658;47.992;10.158;2022-11-15T07:52:12;19.80;47.80
7234;DHT22;3658;47.992;10.158;2022-11-15T07:54:39;19.80;47.80
7234;DHT22;3658;47.992;10.158;2022-11-15T07:57:06;19.80;47.80
7234;DHT22;3658;47.992;10.158;2022-11-15T07:59:34;19.80;47.80
7234;DHT22;3658;47.992;10.158;2022-11-15T08:02:02;19.80;47.80
7234;DHT22;3658;47.992;10.158;2022-11-15T08:04:30;19.80;47.90
7234;DHT22;3658;47.992;10.158;2022-11-15T08:06:57;19.80;47.80
7234;DHT22;3658;47.992;10.158;2022-11-15T08:09:24;19.80;47.80
7234;DHT22;3658;47.992;10.158;2022-11-15T08:11:51;19.80;47.90
7234;DHT22;3658;47.992;10.158;2022-11-15T08:14:18;19.80;47.90
7234;DHT22;3658;47.992;10.158;2022-11-15T08:16:46;19.80;47.90
7234;DHT22;3658;47.992;10.158;2022-11-15T08:19:13;19.80;47.90
7234;DHT22;3658;47.992;10.158;2022-11-15T08:21:42;19.80;47.90
7234;DHT22;3658;47.992;10.158;2022-11-15T08:24:09;19.80;48.00
7234;DHT22;3658;47.992;10.158;2022-11-15T08:26:37;19.80;48.00
7234;DHT22;3658;47.992;10.158;2022-11-15T08:29:05;19.80;48.00
7234;DHT22;3658;47.992;10.158;2022-11-15T08:31:33;19.80;48.00
7234;DHT22;3658;47.992;10.158;2022-11-15T08:34:00;19.80;48.00
7234;DHT22;3658;47.992;10.158;2022-11-15T08:36:27;19.80;48.00
7234;DHT22;3658;47.992;10.158;2022-11-15T08:38:56;19.70;47.90
7234;DHT22;3658;47.992;10.158;2022-11-15T08:41:25;19.70;48.00
7234;DHT22;3658;47.992;10.158;2022-11-15T08:43:53;19.70;47.90
7234;DHT22;3658;47.992;10.158;2022-11-15T08:46:20;19.80;48.00
7234;DHT22;3658;47.992;10.158;2022-11-15T08:48:47;19.70;47.90
7234;DHT22;3658;47.992;10.158;2022-11-15T08:51:14;19.70;48.00
7234;DHT22;3658;47.992;10.158;2022-11-15T08:53:41;19.70;48.00
7234;DHT22;3658;47.992;10.158;2022-11-15T08:56:10;19.70;48.00
7234;DHT22;3658;47.992;10.158;2022-11-15T08:58:37;19.70;48.00
7234;DHT22;3658;47.992;10.158;2022-11-15T09:01:05;19.70;48.00
7234;DHT22;3658;47.992;10.158;2022-11-15T09:03:32;19.70;48.00
7234;DHT22;3658;47.992;10.158;2022-11-15T09:06:00;19.70;48.00
7234;DHT22;3658;47.992;10.158;2022-11-15T09:08:30;19.70;48.00
7234;DHT22;3658;47.992;10.158;2022-11-15T09:10:57;19.70;48.00
7234;DHT22;3658;47.992;10.158;2022-11-15T09:13:25;19.70;48.60
7234;DHT22;3658;47.992;10.158;2022-11-15T09:15:52;19.70;48.00
7234;DHT22;3658;47.992;10.158;2022-11-15T09:18:19;19.70;48.00
7234;DHT22;3658;47.992;10.158;2022-11-15T09:20:47;19.70;48.60
7234;DHT22;3658;47.992;10.158;2022-11-15T09:23:14;19.70;48.00
7234;DHT22;3658;47.992;10.158;2022-11-15T09:25:41;19.70;48.00
7234;DHT22;3658;47.992;10.158;2022-11-15T09:28:08;19.70;48.00
7234;DHT22;3658;47.992;10.158;2022-11-15T09:30:36;19.70;48.00
7234;DHT22;3658;47.992;10.158;2022-11-15T09:33:07;19.70;48.00
7234;DHT22;3658;47.992;10.158;2022-11-15T09:35:34;19.70;48.10
7234;DHT22;3658;47.992;10.158;2022-11-15T09:38:01;19.70;48.00
7234;DHT22;3658;47.992;10.158;2022-11-15T09:40:30;19.70;48.10
7234;DHT22;3658;47.992;10.158;2022-11-15T09:43:06;19.70;48.10
7234;DHT22;3658;47.992;10.158;2022-11-15T09:45:57;19.70;48.10
7234;DHT22;3658;47.992;10.158;2022-11-15T09:51:28;19.70;48.20
7234;DHT22;3658;47.992;10.158;2022-11-15T09:54:01;19.70;48.10
7234;DHT22;3658;47.992;10.158;2022-11-15T09:56:30;19.70;48.10
7234;DHT22;3658;47.992;10.158;2022-11-15T09:59:12;19.70;48.10
7234;DHT22;3658;47.992;10.158;2022-11-15T10:01:52;19.70;48.10
7234;DHT22;3658;47.992;10.158;2022-11-15T10:04:21;19.70;48.80
7234;DHT22;3658;47.992;10.158;2022-11-15T10:06:54;19.70;48.10
7234;DHT22;3658;47.992;10.158;2022-11-15T10:09:25;19.70;48.10
7234;DHT22;3658;47.992;10.158;2022-11-15T10:11:53;19.70;48.10
7234;DHT22;3658;47.992;10.158;2022-11-15T10:14:22;19.70;48.10
7234;DHT22;3658;47.992;10.158;2022-11-15T10:17:07;19.70;48.10
7234;DHT22;3658;47.992;10.158;2022-11-15T10:19:44;19.70;48.10
7234;DHT22;3658;47.992;10.158;2022-11-15T10:22:21;19.70;48.00
7234;DHT22;3658;47.992;10.158;2022-11-15T10:24:58;19.70;48.10
7234;DHT22;3658;47.992;10.158;2022-11-15T10:27:25;19.70;48.00
7234;DHT22;3658;47.992;10.158;2022-11-15T10:29:52;19.70;48.00
7234;DHT22;3658;47.992;10.158;2022-11-15T10:32:21;19.70;48.00
7234;DHT22;3658;47.992;10.158;2022-11-15T10:34:49;19.70;48.00
7234;DHT22;3658;47.992;10.158;2022-11-15T10:37:27;19.70;48.00
7234;DHT22;3658;47.992;10.158;2022-11-15T10:40:03;19.70;48.00
7234;DHT22;3658;47.992;10.158;2022-11-15T10:42:30;19.70;48.00
7234;DHT22;3658;47.992;10.158;2022-11-15T10:44:57;19.70;48.00
7234;DHT22;3658;47.992;10.158;2022-11-15T10:47:28;19.70;48.00
7234;DHT22;3658;47.992;10.158;2022-11-15T10:49:59;19.70;48.00
7234;DHT22;3658;47.992;10.158;2022-11-15T10:52:26;19.70;48.00
7234;DHT22;3658;47.992;10.158;2022-11-15T10:54:56;19.70;48.00
7234;DHT22;3658;47.992;10.158;2022-11-15T10:57:26;19.70;48.00
7234;DHT22;3658;47.992;10.158;2022-11-15T10:59:55;19.70;48.00
7234;DHT22;3658;47.992;10.158;2022-11-15T11:02:31;19.70;48.00
7234;DHT22;3658;47.992;10.158;2022-11-15T11:04:59;19.70;48.00
7234;DHT22;3658;47.992;10.158;2022-11-15T11:07:27;19.70;48.00
7234;DHT22;3658;47.992;10.158;2022-11-15T11:10:00;19.70;48.00
7234;DHT22;3658;47.992;10.158;2022-11-15T11:12:28;19.70;48.00
7234;DHT22;3658;47.992;10.158;2022-11-15T11:14:58;19.70;48.00
7234;DHT22;3658;47.992;10.158;2022-11-15T11:17:48;19.70;48.00
7234;DHT22;3658;47.992;10.158;2022-11-15T11:20:21;19.70;48.00
7234;DHT22;3658;47.992;10.158;2022-11-15T11:23:00;19.60;47.90
7234;DHT22;3658;47.992;10.158;2022-11-15T11:25:33;19.70;48.00
7234;DHT22;3658;47.992;10.158;2022-11-15T11:28:26;19.70;48.00
7234;DHT22;3658;47.992;10.158;2022-11-15T11:31:03;19.70;48.00
7234;DHT22;3658;47.992;10.158;2022-11-15T11:33:40;19.70;48.00
7234;DHT22;3658;47.992;10.158;2022-11-15T11:36:18;19.60;48.60
7234;DHT22;3658;47.992;10.158;2022-11-15T11:38:58;19.60;48.00
7234;DHT22;3658;47.992;10.158;2022-11-15T11:41:46;19.60;47.90
7234;DHT22;3658;47.992;10.158;2022-11-15T11:44:30;19.60;47.90
7234;DHT22;3658;47.992;10.158;2022-11-15T11:47:00;19.60;48.00
7234;DHT22;3658;47.992;10.158;2022-11-15T11:49:33;19.60;48.00
7234;DHT22;3658;47.992;10.158;2022-11-15T11:52:05;19.60;48.00
7234;DHT22;3658;47.992;10.158;2022-11-15T11:54:40;19.60;47.90
7234;DHT22;3658;47.992;10.158;2022-11-15T11:57:16;19.70;48.00
7234;DHT22;3658;47.992;10.158;2022-11-15T11:59:50;19.60;47.90
7234;DHT22;3658;47.992;10.158;2022-11-15T12:02:25;19.60;48.00
7234;DHT22;3658;47.992;10.158;2022-11-15T12:05:04;19.60;47.90
7234;DHT22;3658;47.992;10.158;2022-11-15T12:07:35;19.60;48.00
7234;DHT22;3658;47.992;10.158;2022-11-15T12:10:05;19.60;48.00
7234;DHT22;3658;47.992;10.158;2022-11-15T12:12:43;19.60;48.00
7234;DHT22;3658;47.992;10.158;2022-11-15T12:15:13;19.60;48.00
7234;DHT22;3658;47.992;10.158;2022-11-15T12:17:42;19.60;48.00
7234;DHT22;3658;47.992;10.158;2022-11-15T12:20:17;19.60;48.00
7234;DHT22;3658;47.992;10.158;2022-11-15T12:22:49;19.60;48.00
7234;DHT22;3658;47.992;10.158;2022-11-15T12:25:19;19.60;48.00
7234;DHT22;3658;47.992;10.158;2022-11-15T12:27:52;19.60;48.00
7234;DHT22;3658;47.992;10.158;2022-11-15T12:30:21;19.60;48.00
7234;DHT22;3658;47.992;10.158;2022-11-15T12:32:51;19.60;48.00
7234;DHT22;3658;47.992;10.158;2022-11-15T12:35:34;19.60;48.00
7234;DHT22;3658;47.992;10.158;2022-11-15T12:38:01;19.60;48.00
7234;DHT22;3658;47.992;10.158;2022-11-15T12:40:34;19.60;48.00
7234;DHT22;3658;47.992;10.158;2022-11-15T12:43:37;19.60;48.00
7234;DHT22;3658;47.992;10.158;2022-11-15T12:46:10;19.60;48.00
7234;DHT22;3658;47.992;10.158;2022-11-15T12:48:54;19.60;48.00
7234;DHT22;3658;47.992;10.158;2022-11-15T12:54:54;19.60;48.00
7234;DHT22;3658;47.992;10.158;2022-11-15T12:57:30;19.60;48.00
7234;DHT22;3658;47.992;10.158;2022-11-15T12:59:59;19.60;48.00
7234;DHT22;3658;47.992;10.158;2022-11-15T13:02:30;19.60;48.00
7234;DHT22;3658;47.992;10.158;2022-11-15T13:07:58;19.60;48.10
7234;DHT22;3658;47.992;10.158;2022-11-15T13:10:32;19.60;48.10
7234;DHT22;3658;47.992;10.158;2022-11-15T13:13:00;19.60;48.10
7234;DHT22;3658;47.992;10.158;2022-11-15T13:15:40;19.60;48.10
7234;DHT22;3658;47.992;10.158;2022-11-15T13:18:29;19.60;48.10
7234;DHT22;3658;47.992;10.158;2022-11-15T13:20:56;19.60;48.10
7234;DHT22;3658;47.992;10.158;2022-11-15T13:23:23;19.60;48.20
7234;DHT22;3658;47.992;10.158;2022-11-15T13:26:09;19.50;48.10
7234;DHT22;3658;47.992;10.158;2022-11-15T13:28:39;19.60;48.20
7234;DHT22;3658;47.992;10.158;2022-11-15T13:31:25;19.60;48.20
7234;DHT22;3658;47.992;10.158;2022-11-15T13:33:56;19.60;48.30
7234;DHT22;3658;47.992;10.158;2022-11-15T13:36:25;19.50;48.10
7234;DHT22;3658;47.992;10.158;2022-11-15T13:38:58;19.50;48.20
7234;DHT22;3658;47.992;10.158;2022-11-15T13:41:28;19.50;48.20
7234;DHT22;3658;47.992;10.158;2022-11-15T13:43:56;19.60;48.30
7234;DHT22;3658;47.992;10.158;2022-11-15T13:46:25;19.50;48.10
7234;DHT22;3658;47.992;10.158;2022-11-15T13:48:55;19.60;48.30
7234;DHT22;3658;47.992;10.158;2022-11-15T13:51:34;19.50;48.20
7234;DHT22;3658;47.992;10.158;2022-11-15T13:54:09;19.50;48.20
7234;DHT22;3658;47.992;10.158;2022-11-15T13:56:44;19.50;48.20
7234;DHT22;3658;47.992;10.158;2022-11-15T13:59:15;19.50;48.20
7234;DHT22;3658;47.992;10.158;2022-11-15T14:01:44;19.50;48.20
7234;DHT22;3658;47.992;10.158;2022-11-15T14:04:13;19.50;48.20
7234;DHT22;3658;47.992;10.158;2022-11-15T14:06:45;19.60;48.30
7234;DHT22;3658;47.992;10.158;2022-11-15T14:09:32;19.50;48.20
7234;DHT22;3658;47.992;10.158;2022-11-15T14:12:02;19.50;48.20
7234;DHT22;3658;47.992;10.158;2022-11-15T14:14:48;19.50;48.30
7234;DHT22;3658;47.992;10.158;2022-11-15T14:17:20;19.50;48.30
7234;DHT22;3658;47.992;10.158;2022-11-15T14:19:49;19.50;48.30
7234;DHT22;3658;47.992;10.158;2022-11-15T14:22:20;19.50;48.30
7234;DHT22;3658;47.992;10.158;2022-11-15T14:25:05;19.60;49.00
7234;DHT22;3658;47.992;10.158;2022-11-15T14:27:34;19.50;48.30
7234;DHT22;3658;47.992;10.158;2022-11-15T14:30:01;19.50;48.30
7234;DHT22;3658;47.992;10.158;2022-11-15T14:32:37;19.50;48.50
7234;DHT22;3658;47.992;10.158;2022-11-15T14:35:14;19.50;48.30
7234;DHT22;3658;47.992;10.158;2022-11-15T14:37:41;19.50;48.30
7234;DHT22;3658;47.992;10.158;2022-11-15T14:40:12;19.50;48.30
7234;DHT22;3658;47.992;10.158;2022-11-15T14:42:41;19.50;48.30
7234;DHT22;3658;47.992;10.158;2022-11-15T14:45:11;19.50;48.30
7234;DHT22;3658;47.992;10.158;2022-11-15T14:47:39;19.50;48.30
7234;DHT22;3658;47.992;10.158;2022-11-15T14:50:06;19.50;48.30
7234;DHT22;3658;47.992;10.158;2022-11-15T14:52:33;19.50;48.30
7234;DHT22;3658;47.992;10.158;2022-11-15T14:55:01;19.50;48.30
7234;DHT22;3658;47.992;10.158;2022-11-15T14:57:29;19.50;48.30
7234;DHT22;3658;47.992;10.158;2022-11-15T14:59:58;19.50;48.30
7234;DHT22;3658;47.992;10.158;2022-11-15T15:02:26;19.50;48.30
7234;DHT22;3658;47.992;10.158;2022-11-15T15:04:53;19.50;48.90
7234;DHT22;3658;47.992;10.158;2022-11-15T15:07:20;19.50;48.30
7234;DHT22;3658;47.992;10.158;2022-11-15T15:09:47;19.50;48.30
7234;DHT22;3658;47.992;10.158;2022-11-15T15:12:18;19.50;48.40
7234;DHT22;3658;47.992;10.158;2022-11-15T15:14:47;19.50;48.40
7234;DHT22;3658;47.992;10.158;2022-11-15T15:17:16;19.50;48.40
7234;DHT22;3658;47.992;10.158;2022-11-15T15:19:43;19.50;48.40
7234;DHT22;3658;47.992;10.158;2022-11-15T15:22:14;19.50;48.40
7234;DHT22;3658;47.992;10.158;2022-11-15T15:24:41;19.50;48.40
7234;DHT22;3658;47.992;10.158;2022-11-15T15:27:09;19.50;48.40
7234;DHT22;3658;47.992;10.158;2022-11-15T15:29:36;19.50;48.40
7234;DHT22;3658;47.992;10.158;2022-11-15T15:32:03;19.50;48.40
7234;DHT22;3658;47.992;10.158;2022-11-15T15:34:32;19.50;48.40
7234;DHT22;3658;47.992;10.158;2022-11-15T15:37:22;19.50;48.50
7234;DHT22;3658;47.992;10.158;2022-11-15T15:39:50;19.50;49.00
7234;DHT22;3658;47.992;10.158;2022-11-15T15:42:18;19.50;48.40
7234;DHT22;3658;47.992;10.158;2022-11-15T15:44:45;19.50;48.40
7234;DHT22;3658;47.992;10.158;2022-11-15T15:47:15;19.50;48.40
7234;DHT22;3658;47.992;10.158;2022-11-15T15:49:44;19.50;48.40
7234;DHT22;3658;47.992;10.158;2022-11-15T15:52:11;19.40;48.30
7234;DHT22;3658;47.992;10.158;2022-11-15T15:54:38;19.40;48.40
7234;DHT22;3658;47.992;10.158;2022-11-15T15:57:05;19.40;48.30
7234;DHT22;3658;47.992;10.158;2022-11-15T15:59:33;19.40;48.40
7234;DHT22;3658;47.992;10.158;2022-11-15T16:02:00;19.50;48.50
7234;DHT22;3658;47.992;10.158;2022-11-15T16:04:26;19.40;48.30
7234;DHT22;3658;47.992;10.158;2022-11-15T16:06:58;19.40;48.40
7234;DHT22;3658;47.992;10.158;2022-11-15T16:09:25;19.40;48.40
7234;DHT22;3658;47.992;10.158;2022-11-15T16:12:06;19.40;48.40
7234;DHT22;3658;47.992;10.158;2022-11-15T16:14:33;19.40;48.40
7234;DHT22;3658;47.992;10.158;2022-11-15T16:17:00;19.40;48.40